createdAt,value
2023-04-15T00:00:59.788Z,2.30
2023-04-15T00:03:28.719Z,2.60
2023-04-15T00:05:56.361Z,2.33
2023-04-15T00:08:23.775Z,2.90
2023-04-15T00:10:50.991Z,3.10
2023-04-15T00:13:17.947Z,2.87
2023-04-15T00:15:44.794Z,2.70
2023-04-15T00:18:11.731Z,3.03
2023-04-15T00:20:38.637Z,3.10
2023-04-15T00:23:05.717Z,3.93
2023-04-15T00:25:33.151Z,3.20
2023-04-15T00:28:00.145Z,3.37
2023-04-15T00:30:28.427Z,2.93
2023-04-15T00:32:55.495Z,2.90
2023-04-15T00:35:24.101Z,3.30
2023-04-15T00:37:51.590Z,3.57
2023-04-15T00:40:21.102Z,3.70
2023-04-15T00:42:48.376Z,3.00
2023-04-15T00:45:15.884Z,3.40
2023-04-15T00:50:44.916Z,4.10
2023-04-15T00:53:12.353Z,3.80
2023-04-15T00:55:40.066Z,3.50
2023-04-15T00:58:07.219Z,3.23
2023-04-15T01:00:34.713Z,3.70
2023-04-15T01:03:01.830Z,3.63
2023-04-15T01:05:30.313Z,4.83
2023-04-15T01:07:57.339Z,4.23
2023-04-15T01:10:24.331Z,3.27
2023-04-15T01:16:13.260Z,3.07
2023-04-15T01:18:40.436Z,3.40
2023-04-15T01:21:07.828Z,3.10
2023-04-15T01:23:38.625Z,3.23
2023-04-15T01:26:08.033Z,3.67
2023-04-15T01:28:36.395Z,3.50
2023-04-15T01:31:13.734Z,4.00
2023-04-15T01:33:42.444Z,4.17
2023-04-15T01:36:28.249Z,3.77
2023-04-15T01:38:56.016Z,3.67
2023-04-15T01:41:29.226Z,3.23
2023-04-15T01:43:57.504Z,3.97
2023-04-15T01:46:25.821Z,4.00
2023-04-15T01:48:55.052Z,3.37
2023-04-15T01:51:23.337Z,4.03
2023-04-15T01:53:52.460Z,4.00
2023-04-15T01:56:20.584Z,3.40
2023-04-15T01:58:49.040Z,3.30
2023-04-15T02:01:19.658Z,3.90
2023-04-15T02:03:48.341Z,4.60
2023-04-15T02:06:17.185Z,4.27
2023-04-15T02:08:45.383Z,4.30
2023-04-15T02:11:13.666Z,4.10
2023-04-15T02:13:41.872Z,3.57
2023-04-15T02:16:17.807Z,4.03
2023-04-15T02:18:47.094Z,3.83
2023-04-15T02:21:15.130Z,3.40
2023-04-15T02:23:44.077Z,4.00
2023-04-15T02:26:14.905Z,3.90
2023-04-15T02:28:42.928Z,3.73
2023-04-15T02:31:11.045Z,3.70
2023-04-15T02:33:39.175Z,3.80
2023-04-15T02:36:08.432Z,4.43
2023-04-15T02:38:36.680Z,3.27
2023-04-15T02:41:04.887Z,4.53
2023-04-15T02:43:32.913Z,3.77
2023-04-15T02:46:01.311Z,3.70
2023-04-15T02:48:29.602Z,4.23
2023-04-15T02:51:22.748Z,4.13
2023-04-15T02:53:51.133Z,4.27
2023-04-15T02:56:19.936Z,4.73
2023-04-15T02:58:50.686Z,4.37
2023-04-15T03:01:20.586Z,4.43
2023-04-15T03:03:49.118Z,4.60
2023-04-15T03:06:17.266Z,4.57
2023-04-15T03:08:45.715Z,4.47
2023-04-15T03:11:15.552Z,5.67
2023-04-15T03:13:43.707Z,4.53
2023-04-15T03:16:23.090Z,4.87
2023-04-15T03:18:51.578Z,4.90
2023-04-15T03:21:22.004Z,4.83
2023-04-15T03:23:50.690Z,5.17
2023-04-15T03:26:29.982Z,5.00
2023-04-15T03:29:02.166Z,4.77
2023-04-15T03:31:30.624Z,4.70
2023-04-15T03:33:58.753Z,4.43
2023-04-15T03:36:29.317Z,4.67
2023-04-15T03:38:57.979Z,3.97
2023-04-15T03:41:26.512Z,4.53
2023-04-15T03:43:54.589Z,4.23
2023-04-15T03:46:22.765Z,4.17
2023-04-15T03:48:51.164Z,4.20
2023-04-15T03:51:19.285Z,4.63
2023-04-15T03:53:47.362Z,4.23
2023-04-15T03:56:51.114Z,4.70
2023-04-15T04:03:00.074Z,4.57
2023-04-15T04:05:28.252Z,4.63
2023-04-15T04:07:56.548Z,5.17
2023-04-15T04:10:24.606Z,5.30
2023-04-15T04:12:52.663Z,4.93
2023-04-15T04:15:20.720Z,4.90
2023-04-15T04:17:48.769Z,4.60
2023-04-15T04:20:16.957Z,5.70
2023-04-15T04:22:45.015Z,6.33
2023-04-15T04:25:13.093Z,5.40
2023-04-15T04:27:41.172Z,6.20
2023-04-15T04:30:09.441Z,5.17
2023-04-15T04:32:37.789Z,5.80
2023-04-15T04:35:06.044Z,8.57
2023-04-15T04:37:34.130Z,8.23
2023-04-15T04:40:02.467Z,6.57
2023-04-15T04:42:31.547Z,6.93
2023-04-15T04:44:59.573Z,6.43
2023-04-15T04:47:27.727Z,6.30
2023-04-15T04:49:55.956Z,5.70
2023-04-15T04:52:24.184Z,5.73
2023-04-15T04:54:52.260Z,5.80
2023-04-15T04:57:20.856Z,6.20
2023-04-15T04:59:48.915Z,5.77
2023-04-15T05:02:17.137Z,5.50
2023-04-15T05:04:45.508Z,6.10
2023-04-15T05:07:13.608Z,5.97
2023-04-15T05:09:42.182Z,4.33
2023-04-15T05:12:15.015Z,4.60
2023-04-15T05:14:43.137Z,4.87
2023-04-15T05:17:11.581Z,4.40
2023-04-15T05:19:39.640Z,4.57
2023-04-15T05:22:08.209Z,3.60
2023-04-15T05:24:36.487Z,3.93
2023-04-15T05:27:04.804Z,4.63
2023-04-15T05:29:32.947Z,5.00
2023-04-15T05:32:01.254Z,4.47
2023-04-15T05:34:29.563Z,6.33
2023-04-15T05:36:57.690Z,5.10
2023-04-15T05:39:25.716Z,4.87
2023-04-15T05:41:53.813Z,4.93
2023-04-15T05:44:21.978Z,5.70
2023-04-15T05:46:49.988Z,6.67
2023-04-15T05:49:18.118Z,6.37
2023-04-15T05:51:47.960Z,6.93
2023-04-15T05:54:17.713Z,5.87
2023-04-15T05:56:47.118Z,6.00
2023-04-15T05:59:16.863Z,6.90
2023-04-15T06:01:45.842Z,6.70
2023-04-15T06:04:18.263Z,6.10
2023-04-15T06:06:46.532Z,6.30
2023-04-15T06:09:14.741Z,6.20
2023-04-15T06:11:43.016Z,6.83
2023-04-15T06:14:11.355Z,6.67
2023-04-15T06:16:40.019Z,10.83
2023-04-15T06:19:08.507Z,6.80
2023-04-15T06:21:36.810Z,5.63
2023-04-15T06:24:05.355Z,6.03
2023-04-15T06:26:33.551Z,5.50
2023-04-15T06:29:01.746Z,5.40
2023-04-15T06:31:30.564Z,6.03
2023-04-15T06:33:58.568Z,8.10
2023-04-15T06:36:26.637Z,6.73
2023-04-15T06:38:54.775Z,5.20
2023-04-15T06:41:23.045Z,5.37
2023-04-15T06:43:51.547Z,4.17
2023-04-15T06:46:19.792Z,5.40
2023-04-15T06:48:48.208Z,6.60
2023-04-15T06:51:16.352Z,5.83
2023-04-15T06:53:44.456Z,8.30
2023-04-15T06:56:12.500Z,8.70
2023-04-15T06:58:40.574Z,9.73
2023-04-15T07:01:08.966Z,12.17
2023-04-15T07:03:37.235Z,9.30
2023-04-15T07:06:07.231Z,10.90
2023-04-15T07:08:35.478Z,13.80
2023-04-15T07:11:03.665Z,11.20
2023-04-15T07:13:32.793Z,10.87
2023-04-15T07:16:00.932Z,11.77
2023-04-15T07:18:29.026Z,10.87
2023-04-15T07:20:57.537Z,9.50
2023-04-15T07:23:25.717Z,11.33
2023-04-15T07:25:53.878Z,10.70
2023-04-15T07:28:22.204Z,7.73
2023-04-15T07:30:50.575Z,7.93
2023-04-15T07:33:18.790Z,8.37
2023-04-15T07:35:47.250Z,7.67
2023-04-15T07:38:15.584Z,8.40
2023-04-15T07:40:44.076Z,10.50
2023-04-15T07:43:13.554Z,10.10
2023-04-15T07:45:41.623Z,9.93
2023-04-15T07:48:09.824Z,9.70
2023-04-15T07:50:38.204Z,8.83
2023-04-15T07:53:07.545Z,9.70
2023-04-15T07:55:35.644Z,8.63
2023-04-15T07:58:03.713Z,8.00
2023-04-15T08:00:32.165Z,7.80
2023-04-15T08:03:00.456Z,9.80
2023-04-15T08:05:40.004Z,8.30
2023-04-15T08:08:14.963Z,8.63
2023-04-15T08:10:43.229Z,7.90
2023-04-15T08:13:11.806Z,6.63
2023-04-15T08:15:44.296Z,8.00
2023-04-15T08:18:12.437Z,8.07
2023-04-15T08:20:40.906Z,8.83
2023-04-15T08:23:09.061Z,7.67
2023-04-15T08:25:37.698Z,12.43
2023-04-15T08:28:07.642Z,9.53
2023-04-15T08:30:35.839Z,8.77
2023-04-15T08:33:03.991Z,7.63
2023-04-15T08:35:32.837Z,7.33
2023-04-15T08:38:01.048Z,8.83
2023-04-15T08:40:45.080Z,7.57
2023-04-15T08:43:21.368Z,6.03
2023-04-15T08:45:51.958Z,6.97
2023-04-15T08:48:20.266Z,6.70
2023-04-15T08:50:48.822Z,6.20
2023-04-15T08:53:17.542Z,6.70
2023-04-15T08:55:47.414Z,6.63
2023-04-15T08:58:19.741Z,6.60
2023-04-15T09:00:48.882Z,6.77
2023-04-15T09:03:17.862Z,6.23
2023-04-15T09:05:46.263Z,6.60
2023-04-15T09:11:54.958Z,7.03
2023-04-15T09:14:23.291Z,6.33
2023-04-15T09:16:58.887Z,7.03
2023-04-15T09:19:27.918Z,7.53
2023-04-15T09:21:59.908Z,7.40
2023-04-15T09:24:37.670Z,6.70
2023-04-15T09:27:06.432Z,7.30
2023-04-15T09:29:34.651Z,8.40
2023-04-15T09:32:16.501Z,8.47
2023-04-15T09:34:44.789Z,9.17
2023-04-15T09:37:28.579Z,7.20
2023-04-15T09:40:00.121Z,7.23
2023-04-15T09:42:29.332Z,6.37
2023-04-15T09:45:08.580Z,6.23
2023-04-15T09:47:37.119Z,8.90
2023-04-15T09:50:05.711Z,8.40
2023-04-15T09:52:34.295Z,8.77
2023-04-15T09:55:02.724Z,10.00
2023-04-15T09:57:38.323Z,8.77
2023-04-15T10:00:08.451Z,8.97
2023-04-15T10:02:38.121Z,8.67
2023-04-15T10:05:07.260Z,7.70
2023-04-15T10:07:35.460Z,7.30
2023-04-15T10:10:04.496Z,6.97
2023-04-15T10:12:33.627Z,6.73
2023-04-15T10:15:05.209Z,5.90
2023-04-15T10:17:35.600Z,7.67
2023-04-15T10:20:05.453Z,5.53
2023-04-15T10:22:33.719Z,6.10
2023-04-15T10:25:04.287Z,5.87
2023-04-15T10:27:33.873Z,5.03
2023-04-15T10:30:03.919Z,4.53
2023-04-15T10:32:32.601Z,5.10
2023-04-15T10:35:01.397Z,5.13
2023-04-15T10:37:37.499Z,5.07
2023-04-15T10:40:25.485Z,5.43
2023-04-15T10:43:27.327Z,4.37
2023-04-15T10:45:55.567Z,4.43
2023-04-15T10:48:24.055Z,5.07
2023-04-15T10:51:00.671Z,4.00
2023-04-15T10:53:30.000Z,4.80
2023-04-15T10:55:59.884Z,4.03
2023-04-15T10:58:42.034Z,5.03
2023-04-15T11:01:10.123Z,4.40
2023-04-15T11:03:40.670Z,4.40
2023-04-15T11:06:09.514Z,4.03
2023-04-15T11:09:02.427Z,4.00
2023-04-15T11:12:06.198Z,3.67
2023-04-15T11:14:37.813Z,3.43
2023-04-15T11:17:06.072Z,3.23
2023-04-15T11:19:40.033Z,3.47
2023-04-15T11:22:09.882Z,3.67
2023-04-15T11:24:47.847Z,3.63
2023-04-15T11:27:25.160Z,3.70
2023-04-15T11:29:53.310Z,3.47
2023-04-15T11:32:21.849Z,3.70
2023-04-15T11:34:52.124Z,3.23
2023-04-15T11:37:29.265Z,2.77
2023-04-15T11:39:57.423Z,3.10
2023-04-15T11:42:26.841Z,2.83
2023-04-15T11:45:15.521Z,3.00
2023-04-15T11:47:43.939Z,3.20
2023-04-15T11:50:23.267Z,3.50
2023-04-15T11:53:01.462Z,2.70
2023-04-15T11:55:29.132Z,3.27
2023-04-15T11:58:18.315Z,3.27
2023-04-15T12:00:53.060Z,3.13
2023-04-15T12:03:26.665Z,3.17
2023-04-15T12:06:31.783Z,3.13
2023-04-15T12:09:00.399Z,3.20
2023-04-15T12:11:27.792Z,3.47
2023-04-15T12:14:07.434Z,3.10
2023-04-15T12:16:48.416Z,2.80
2023-04-15T12:19:22.868Z,3.00
2023-04-15T12:21:50.643Z,3.27
2023-04-15T12:24:22.961Z,2.97
2023-04-15T12:26:53.317Z,2.80
2023-04-15T12:29:21.271Z,3.10
2023-04-15T12:32:15.501Z,2.90
2023-04-15T12:34:53.374Z,2.80
2023-04-15T12:37:21.124Z,3.10
2023-04-15T12:39:49.972Z,3.27
2023-04-15T12:42:18.494Z,2.70
2023-04-15T12:44:45.864Z,2.80
2023-04-15T12:47:13.479Z,3.30
2023-04-15T12:49:41.351Z,2.83
2023-04-15T12:52:08.795Z,2.90
2023-04-15T12:54:36.435Z,3.37
2023-04-15T12:57:06.973Z,3.20
2023-04-15T12:59:35.821Z,2.90
2023-04-15T13:02:03.562Z,3.40
2023-04-15T13:04:31.395Z,2.97
2023-04-15T13:06:58.979Z,3.17
2023-04-15T13:09:29.169Z,2.67
2023-04-15T13:11:57.673Z,3.20
2023-04-15T13:14:24.946Z,2.80
2023-04-15T13:16:52.206Z,2.33
2023-04-15T13:19:19.109Z,1.80
2023-04-15T13:21:46.451Z,1.50
2023-04-15T13:24:13.365Z,1.80
2023-04-15T13:26:40.364Z,1.73
2023-04-15T13:29:07.448Z,1.47
2023-04-15T13:31:37.369Z,2.20
2023-04-15T13:34:04.627Z,1.80
2023-04-15T13:36:31.811Z,1.87
2023-04-15T13:38:59.975Z,1.70
2023-04-15T13:41:27.009Z,2.90
2023-04-15T13:43:53.989Z,1.30
2023-04-15T13:46:21.049Z,1.70
2023-04-15T13:48:48.097Z,2.10
2023-04-15T13:51:15.062Z,2.00
2023-04-15T13:53:41.953Z,2.13
2023-04-15T13:56:09.688Z,2.10
2023-04-15T14:25:33.273Z,2.23
2023-04-15T14:28:01.609Z,2.87
2023-04-15T14:30:28.651Z,2.67
2023-04-15T14:32:55.839Z,2.50
2023-04-15T14:35:24.619Z,2.60
2023-04-15T14:37:51.628Z,2.70
2023-04-15T14:40:19.109Z,2.40
2023-04-15T14:42:46.444Z,2.60
2023-04-15T14:45:13.484Z,2.57
2023-04-15T14:47:40.997Z,2.87
2023-04-15T14:50:08.450Z,3.20
2023-04-15T14:52:41.336Z,4.10
2023-04-15T14:55:12.781Z,2.90
2023-04-15T14:57:41.484Z,3.43
2023-04-15T15:00:12.202Z,3.33
2023-04-15T15:02:42.232Z,3.70
2023-04-15T15:05:11.741Z,3.00
2023-04-15T15:07:41.086Z,3.70
2023-04-15T15:10:08.510Z,2.97
2023-04-15T15:12:35.496Z,4.00
2023-04-15T15:15:12.307Z,2.93
2023-04-15T15:17:43.557Z,2.83
2023-04-15T15:20:10.961Z,3.10
2023-04-15T15:22:38.167Z,3.40
2023-04-15T15:25:05.757Z,4.10
2023-04-15T15:27:32.992Z,4.30
2023-04-15T15:30:00.059Z,4.33
2023-04-15T15:32:27.322Z,4.20
2023-04-15T15:34:54.323Z,4.03
2023-04-15T15:37:21.388Z,3.63
2023-04-15T15:39:49.074Z,4.10
2023-04-15T15:42:16.222Z,3.70
2023-04-15T15:44:43.193Z,7.87
2023-04-15T15:47:10.570Z,4.13
2023-04-15T15:49:38.053Z,4.03
2023-04-15T15:52:06.620Z,4.10
2023-04-15T15:54:34.833Z,4.23
2023-04-15T15:57:02.079Z,3.87
2023-04-15T15:59:29.080Z,3.97
2023-04-15T16:01:56.119Z,4.87
2023-04-15T16:04:23.461Z,4.03
2023-04-15T16:06:50.866Z,4.13
2023-04-15T16:09:18.263Z,4.00
2023-04-15T16:11:45.892Z,3.63
2023-04-15T16:14:14.084Z,3.40
2023-04-15T16:16:41.081Z,4.27
2023-04-15T16:19:08.420Z,4.23
2023-04-15T16:21:35.682Z,4.33
2023-04-15T16:24:03.088Z,4.50
2023-04-15T16:26:30.237Z,4.43
2023-04-15T16:28:57.269Z,3.53
2023-04-15T16:31:24.430Z,3.07
2023-04-15T16:33:51.534Z,2.67
2023-04-15T16:36:18.766Z,2.60
2023-04-15T16:38:48.574Z,3.20
2023-04-15T16:41:16.338Z,2.80
2023-04-15T16:43:43.266Z,2.67
2023-04-15T16:46:10.705Z,2.93
2023-04-15T16:48:37.910Z,2.40
2023-04-15T16:51:05.511Z,2.70
2023-04-15T16:53:32.581Z,2.60
2023-04-15T16:55:59.444Z,2.90
2023-04-15T16:58:26.863Z,3.33
2023-04-15T17:00:53.916Z,2.77
2023-04-15T17:03:21.324Z,3.23
2023-04-15T17:05:48.414Z,3.67
2023-04-15T17:08:15.425Z,3.27
2023-04-15T17:10:42.539Z,3.33
2023-04-15T17:13:09.508Z,3.10
2023-04-15T17:15:36.620Z,3.10
2023-04-15T17:18:23.309Z,2.97
2023-04-15T17:21:06.721Z,3.73
2023-04-15T17:23:42.558Z,3.73
2023-04-15T17:26:12.039Z,4.93
2023-04-15T17:28:44.062Z,3.60
2023-04-15T17:31:18.051Z,3.30
2023-04-15T17:34:09.718Z,3.57
2023-04-15T17:36:58.083Z,3.60
2023-04-15T17:39:45.016Z,4.27
2023-04-15T17:42:31.978Z,3.93
2023-04-15T17:45:19.003Z,3.50
2023-04-15T17:48:06.027Z,3.97
2023-04-15T17:50:53.072Z,3.17
2023-04-15T17:53:39.853Z,2.93
2023-04-15T17:56:29.343Z,2.80
2023-04-15T17:59:16.762Z,2.97
2023-04-15T18:02:03.837Z,2.83
2023-04-15T18:04:50.940Z,3.20
2023-04-15T18:07:37.853Z,3.53
2023-04-15T18:10:24.698Z,3.53
2023-04-15T18:13:11.565Z,3.57
2023-04-15T18:15:58.451Z,3.70
2023-04-15T18:18:45.523Z,3.67
2023-04-15T18:21:13.747Z,3.30
2023-04-15T18:23:41.085Z,2.53
2023-04-15T18:26:11.342Z,2.83
2023-04-15T18:28:39.971Z,3.73
2023-04-15T18:31:07.308Z,2.87
2023-04-15T18:33:36.062Z,3.13
2023-04-15T18:36:09.764Z,2.70
2023-04-15T18:38:37.000Z,3.20
2023-04-15T18:41:05.549Z,3.47
2023-04-15T18:43:32.736Z,3.13
2023-04-15T18:46:00.132Z,4.27
2023-04-15T18:48:27.836Z,3.30
2023-04-15T18:50:55.206Z,3.40
2023-04-15T18:53:22.716Z,3.43
2023-04-15T18:55:49.775Z,2.80
2023-04-15T18:58:16.719Z,3.30
2023-04-15T19:00:43.887Z,3.40
2023-04-15T19:03:11.462Z,2.77
2023-04-15T19:05:38.846Z,2.73
2023-04-15T19:08:05.841Z,2.47
2023-04-15T19:10:34.386Z,2.60
2023-04-15T19:13:01.298Z,2.37
2023-04-15T19:15:29.188Z,2.50
2023-04-15T19:17:56.160Z,2.00
2023-04-15T19:20:23.175Z,2.50
2023-04-15T19:22:50.142Z,2.40
2023-04-15T19:25:17.238Z,13.53
2023-04-15T19:27:44.356Z,1.97
2023-04-15T19:30:11.624Z,1.50
2023-04-15T19:32:38.604Z,2.30
2023-04-15T19:35:06.574Z,1.67
2023-04-15T19:37:33.664Z,1.60
2023-04-15T19:40:00.980Z,1.70
2023-04-15T19:42:28.696Z,2.67
2023-04-15T19:44:55.666Z,2.40
2023-04-15T19:47:23.274Z,1.60
2023-04-15T19:49:54.222Z,1.80
2023-04-15T19:52:22.402Z,1.90
2023-04-15T19:54:49.420Z,2.20
2023-04-15T19:57:16.350Z,1.83
2023-04-15T19:59:43.469Z,2.20
2023-04-15T20:02:10.859Z,2.67
2023-04-15T20:04:41.107Z,2.40
2023-04-15T20:07:08.399Z,2.57
2023-04-15T20:09:35.668Z,2.87
2023-04-15T20:12:46.817Z,2.70
2023-04-15T20:14:49.844Z,3.17
2023-04-15T20:17:17.103Z,2.50
2023-04-15T20:19:44.088Z,2.73
2023-04-15T20:22:10.966Z,3.10
2023-04-15T20:24:38.033Z,3.43
2023-04-15T20:27:05.099Z,3.23
2023-04-15T20:29:32.062Z,3.20
2023-04-15T20:31:59.152Z,2.80
2023-04-15T20:34:26.250Z,2.73
2023-04-15T20:36:53.212Z,2.90
2023-04-15T20:39:20.284Z,2.67
2023-04-15T20:41:47.568Z,2.67
2023-04-15T20:44:15.407Z,2.83
2023-04-15T20:46:42.728Z,2.70
2023-04-15T20:49:10.385Z,2.40
2023-04-15T20:51:38.125Z,3.13
2023-04-15T20:54:05.851Z,2.83
2023-04-15T20:56:33.055Z,2.80
2023-04-15T20:59:01.092Z,2.87
2023-04-15T21:01:28.113Z,2.67
2023-04-15T21:03:55.623Z,3.57
2023-04-15T21:06:22.656Z,2.83
2023-04-15T21:08:49.649Z,3.00
2023-04-15T21:11:33.207Z,3.90
2023-04-15T21:14:07.416Z,3.57
2023-04-15T21:16:34.549Z,2.80
2023-04-15T21:25:43.201Z,3.70
2023-04-15T21:28:10.096Z,3.53
2023-04-15T21:30:37.487Z,4.13
2023-04-15T21:33:04.586Z,4.77
2023-04-15T21:35:31.797Z,5.00
2023-04-15T21:37:58.733Z,5.13
2023-04-15T21:40:25.974Z,4.40
2023-04-15T21:42:53.236Z,4.27
2023-04-15T21:45:20.296Z,3.90
2023-04-15T21:48:00.274Z,3.73
2023-04-15T21:50:35.790Z,3.90
2023-04-15T21:53:04.289Z,4.67
2023-04-15T21:55:31.274Z,4.70
2023-04-15T21:58:05.330Z,4.47
2023-04-15T22:00:35.662Z,3.77
2023-04-15T22:03:02.747Z,4.10
2023-04-15T22:05:29.806Z,5.00
2023-04-15T22:07:58.290Z,4.47
2023-04-15T22:10:25.376Z,3.77
2023-04-15T22:12:52.437Z,5.27
2023-04-15T22:15:19.423Z,4.87
2023-04-15T22:17:46.903Z,4.30
2023-04-15T22:20:14.114Z,4.73
2023-04-15T22:22:44.317Z,3.63
2023-04-15T22:25:12.601Z,3.57
2023-04-15T22:27:39.959Z,4.37
2023-04-15T22:30:07.967Z,3.63
2023-04-15T22:32:35.091Z,3.63
2023-04-15T22:35:02.548Z,3.30
2023-04-15T22:37:31.937Z,3.47
2023-04-15T22:39:59.492Z,3.20
2023-04-15T22:42:26.791Z,3.80
2023-04-15T22:44:53.902Z,3.50
2023-04-15T22:47:20.967Z,3.57
2023-04-15T22:49:47.969Z,3.30
2023-04-15T22:52:29.500Z,3.43
2023-04-15T22:54:58.570Z,2.93
2023-04-15T22:57:27.858Z,2.97
2023-04-15T22:59:55.003Z,3.20
2023-04-15T23:02:22.168Z,2.93
2023-04-15T23:04:49.358Z,3.00
2023-04-15T23:07:16.384Z,2.97
2023-04-15T23:09:43.335Z,2.80
2023-04-15T23:12:10.541Z,2.47
2023-04-15T23:14:37.457Z,2.83
2023-04-15T23:17:04.392Z,2.60
2023-04-15T23:19:31.343Z,2.83
2023-04-15T23:21:58.428Z,2.47
2023-04-15T23:24:25.434Z,2.60
2023-04-15T23:26:53.186Z,2.83
2023-04-15T23:29:20.204Z,2.93
2023-04-15T23:31:47.213Z,2.30
2023-04-15T23:34:14.195Z,2.83
2023-04-15T23:36:41.163Z,3.77
2023-04-15T23:39:08.379Z,3.00
2023-04-15T23:41:36.634Z,2.27
2023-04-15T23:44:03.729Z,2.60
2023-04-15T23:46:31.098Z,2.83
2023-04-15T23:48:58.156Z,3.00
2023-04-15T23:51:25.084Z,3.47
2023-04-15T23:53:52.430Z,3.93
2023-04-15T23:56:19.519Z,3.63
2023-04-15T23:58:46.602Z,3.73
